Time;durP1;ratioP1;P1;durP2;ratioP2;P2;SDS_P1;SDS_P2;PMS_P1;PMS_P2;Temp;Humidity;BMP_temperature;BMP_pressure;BME280_temperature;BME280_humidity;BME280_pressure;Samples;Min_cycle;Max_cycle;Signal;HPM_P1;HPM_P2
2021/04/07 07:06:20;;;;;;;6.88;5.00;;;-2.40;99.90;;;;;;1826362;23;20647;-93
2021/04/07 07:08:48;;;;;;;7.15;5.32;;;-2.30;99.90;;;;;;4864690;29;20454;-96
2021/04/07 07:11:16;;;;;;;9.43;5.47;;;-2.40;99.90;;;;;;4847370;29;20820;-94
2021/04/07 07:13:44;;;;;;;8.23;5.95;;;-2.40;99.90;;;;;;4854302;29;20442;-95
2021/04/07 07:16:23;;;;;;;8.70;6.37;;;-2.30;99.90;;;;;;4849337;29;20518;-94
2021/04/07 07:18:50;;;;;;;8.15;5.82;;;-2.40;99.90;;;;;;4846719;29;20438;-94
2021/04/07 07:21:17;;;;;;;10.27;6.45;;;-2.50;99.90;;;;;;4848436;29;20568;-92
2021/04/07 07:23:47;;;;;;;8.87;5.67;;;-2.30;99.90;;;;;;4847741;29;20466;-94
2021/04/07 07:26:15;;;;;;;7.32;5.50;;;-2.30;99.90;;;;;;4848787;29;20438;-93
2021/04/07 07:28:54;;;;;;;7.50;5.22;;;-2.00;99.90;;;;;;4846529;29;20438;-93
2021/04/07 07:31:26;;;;;;;7.97;5.32;;;-1.80;99.90;;;;;;4847923;29;21018;-94
2021/04/07 07:34:29;;;;;;;7.25;4.75;;;-1.70;99.90;;;;;;4850101;29;20446;-92
2021/04/07 07:37:40;;;;;;;8.23;5.30;;;-1.30;99.90;;;;;;4850784;29;20818;-96
2021/04/07 07:40:32;;;;;;;7.43;4.77;;;-1.20;99.90;;;;;;4847292;29;20458;-94
2021/04/07 07:43:02;;;;;;;7.75;4.60;;;-1.50;99.90;;;;;;4847959;29;20440;-95
2021/04/07 07:45:39;;;;;;;9.40;5.65;;;-1.50;99.90;;;;;;4867174;29;20456;-95
2021/04/07 07:48:21;;;;;;;6.90;4.70;;;-1.30;99.90;;;;;;4865960;29;20432;-93
2021/04/07 07:54:32;;;;;;;6.82;4.80;;;-1.20;99.90;;;;;;4885613;29;20524;-96
2021/04/07 07:57:20;;;;;;;7.83;4.43;;;-1.30;99.90;;;;;;4875054;29;20479;-96
2021/04/07 08:00:16;;;;;;;7.95;4.95;;;-1.40;99.90;;;;;;4897783;29;20459;-96
2021/04/07 08:06:27;;;;;;;;;;;;;;;;;;;;;
2021/04/07 08:18:10;;;;;;;5.50;3.55;;;-1.50;99.90;;;;;;5189306;23;20442;-94
2021/04/07 08:32:53;;;;;;;6.47;3.70;;;-0.10;99.90;;;;;;4864571;29;20449;-94
2021/04/07 08:35:35;;;;;;;7.03;3.78;;;-0.70;99.90;;;;;;4848040;29;20458;-95
2021/04/07 08:38:13;;;;;;;7.63;3.90;;;-1.30;99.90;;;;;;4844962;29;20436;-95
2021/04/07 08:57:02;;;;;;;9.23;5.20;;;-1.10;99.90;;;;;;5978520;23;21137;31
2021/04/07 09:38:10;;;;;;;;;;;;;;;;;;;;;
2021/04/07 09:44:40;;;;;;;5.82;3.95;;;-0.40;99.90;;;;;;5229882;23;20476;-96
2021/04/07 09:48:23;;;;;;;5.13;2.63;;;0.00;99.90;;;;;;4823247;29;20476;-95
2021/04/07 11:34:59;;;;;;;6.53;3.15;;;-1.20;99.90;;;;;;4916198;29;20442;-95
2021/04/07 12:38:30;;;;;;;5.38;2.80;;;-0.30;99.90;;;;;;5298192;23;20426;-94
2021/04/07 12:41:53;;;;;;;5.80;3.28;;;0.00;99.90;;;;;;4934876;23;20441;-94
2021/04/07 13:14:26;;;;;;;5.55;2.33;;;-0.30;97.80;;;;;;2077587;23;20699;-93
2021/04/07 13:17:05;;;;;;;6.75;2.20;;;-0.60;97.20;;;;;;4867353;29;20451;-94
2021/04/07 13:19:57;;;;;;;5.60;2.53;;;-0.90;96.90;;;;;;4839420;29;20512;-96
2021/04/07 13:36:26;;;;;;;3.92;1.75;;;0.30;92.00;;;;;;4911301;29;20447;-96
2021/04/07 13:39:51;;;;;;;7.22;2.50;;;0.80;92.30;;;;;;4975118;23;20540;-96
2021/04/07 13:46:13;;;;;;;5.78;2.50;;;0.80;92.00;;;;;;4959708;23;20443;-96
2021/04/07 13:55:34;;;;;;;3.63;1.95;;;-0.10;92.50;;;;;;5739529;23;21080;-94
2021/04/07 13:58:53;;;;;;;4.50;2.10;;;0.60;93.40;;;;;;4902725;29;20467;-94
2021/04/07 14:01:45;;;;;;;6.00;2.30;;;1.90;90.10;;;;;;4844662;29;20541;-95
2021/04/07 14:10:39;;;;;;;6.97;1.70;;;2.80;82.00;;;;;;4901475;29;20506;-95
2021/04/07 14:13:31;;;;;;;3.75;1.73;;;2.90;77.70;;;;;;4900825;29;20450;-94
2021/04/07 14:16:20;;;;;;;4.32;1.85;;;3.00;78.80;;;;;;4887937;29;20517;-94
2021/04/07 14:19:09;;;;;;;6.93;2.20;;;2.50;80.10;;;;;;4904801;29;20431;-95
2021/04/07 14:22:14;;;;;;;5.25;1.92;;;1.80;82.10;;;;;;4921186;29;20407;-94
2021/04/07 14:36:46;;;;;;;3.40;1.77;;;0.00;90.80;;;;;;4888209;29;20444;-93
2021/04/07 14:39:44;;;;;;;5.22;2.00;;;0.20;91.00;;;;;;4893526;29;20395;-94
2021/04/07 14:45:06;;;;;;;4.27;1.83;;;0.20;90.50;;;;;;4947854;23;20439;-95
2021/04/07 14:48:29;;;;;;;3.90;1.83;;;0.00;90.90;;;;;;4898644;29;20414;-94
2021/04/07 14:51:43;;;;;;;3.45;1.95;;;-0.20;91.20;;;;;;4883474;29;20467;-96
2021/04/07 14:54:30;;;;;;;7.68;2.05;;;-0.20;92.60;;;;;;4894161;29;20969;-94
2021/04/07 14:57:15;;;;;;;6.15;3.42;;;-0.30;92.90;;;;;;4874902;29;20430;-95
2021/04/07 14:59:49;;;;;;;4.72;2.25;;;-0.50;94.00;;;;;;4859671;29;20534;-96
2021/04/07 15:03:08;;;;;;;4.22;1.80;;;-0.60;94.60;;;;;;4858409;29;20485;-94
2021/04/07 15:06:22;;;;;;;4.78;1.92;;;0.00;93.80;;;;;;4784323;30;20456;-96
2021/04/07 15:08:52;;;;;;;3.10;1.80;;;-0.20;92.90;;;;;;4788885;29;20446;-95
2021/04/07 15:11:34;;;;;;;3.05;1.77;;;0.10;92.80;;;;;;4893961;23;20443;-96
2021/04/07 15:14:05;;;;;;;2.83;1.77;;;0.00;93.00;;;;;;4939054;28;20461;-94
2021/04/07 15:16:38;;;;;;;4.03;2.55;;;-0.10;92.30;;;;;;4933474;28;20504;-95
2021/04/07 15:19:18;;;;;;;4.20;1.73;;;-0.10;92.20;;;;;;4927950;29;20469;-94
2021/04/07 15:21:50;;;;;;;2.90;1.33;;;0.70;90.60;;;;;;4927578;29;20477;-95
2021/04/07 15:24:31;;;;;;;2.35;1.38;;;1.70;83.30;;;;;;4927591;29;20421;-95
2021/04/07 15:27:12;;;;;;;5.00;1.95;;;2.50;81.30;;;;;;4936425;28;20428;-96
2021/04/07 15:29:44;;;;;;;1.75;1.13;;;2.90;81.20;;;;;;4948357;23;20424;-95
2021/04/07 15:32:11;;;;;;;2.60;1.60;;;1.90;82.60;;;;;;4916331;29;20527;-95
2021/04/07 15:34:42;;;;;;;2.90;1.83;;;1.20;85.10;;;;;;4926293;29;20437;-96
2021/04/07 15:37:18;;;;;;;6.82;2.90;;;0.70;90.10;;;;;;4897581;29;20808;-96
2021/04/07 15:39:49;;;;;;;3.47;1.98;;;0.60;90.80;;;;;;4910924;29;20716;-96
2021/04/07 15:42:15;;;;;;;6.97;2.40;;;1.30;89.40;;;;;;4910047;29;20461;-95
2021/04/07 15:44:44;;;;;;;3.80;1.93;;;2.10;86.70;;;;;;4897281;29;20468;-96
2021/04/07 15:47:11;;;;;;;4.25;1.98;;;2.50;85.90;;;;;;4889784;29;20510;-94
2021/04/07 15:49:41;;;;;;;4.13;1.85;;;2.90;82.80;;;;;;4889098;29;20435;-95
2021/04/07 15:52:27;;;;;;;5.20;2.08;;;2.70;83.20;;;;;;4931705;23;20518;-95
2021/04/07 15:54:56;;;;;;;4.75;1.95;;;1.70;85.30;;;;;;4894453;29;20427;-94
2021/04/07 15:57:28;;;;;;;3.70;1.73;;;0.90;89.30;;;;;;4892833;29;20442;-95
2021/04/07 16:00:08;;;;;;;6.63;2.13;;;0.30;92.00;;;;;;4908750;29;20461;-93
2021/04/07 16:02:50;;;;;;;4.05;1.60;;;0.00;92.30;;;;;;4916799;29;20427;-95
2021/04/07 16:05:19;;;;;;;3.63;1.65;;;-0.20;92.60;;;;;;4901914;29;20471;-94
2021/04/07 16:07:58;;;;;;;4.50;2.13;;;-0.20;92.50;;;;;;4911747;29;20455;-94
2021/04/07 16:10:33;;;;;;;3.03;1.77;;;-0.10;92.70;;;;;;4911827;29;20453;-96
2021/04/07 16:13:08;;;;;;;2.92;1.60;;;-0.10;92.40;;;;;;4892578;29;20586;-93
2021/04/07 16:15:43;;;;;;;3.58;1.90;;;-0.10;94.00;;;;;;4907736;29;20927;-95
2021/04/07 16:18:27;;;;;;;2.73;1.70;;;-0.50;99.80;;;;;;4911413;29;20419;-92
2021/04/07 16:20:57;;;;;;;6.50;1.52;;;-1.10;99.90;;;;;;4905055;29;20490;-93
2021/04/07 16:23:24;;;;;;;6.07;1.63;;;-1.50;99.90;;;;;;4904053;29;20526;-95
2021/04/07 16:26:13;;;;;;;4.55;2.17;;;-1.80;99.90;;;;;;4910177;29;20435;-95
2021/04/07 16:28:41;;;;;;;3.53;2.05;;;-1.80;99.90;;;;;;4909601;29;20435;-94
2021/04/07 16:31:09;;;;;;;4.20;2.28;;;-1.80;99.90;;;;;;4906047;29;20443;-94
2021/04/07 16:33:40;;;;;;;4.93;2.65;;;-2.00;99.90;;;;;;4909690;29;20426;-95
2021/04/07 16:42:58;;;;;;;7.80;2.47;;;-2.80;99.90;;;;;;4913864;29;20446;-95
2021/04/07 16:45:28;;;;;;;6.97;3.22;;;-2.80;99.90;;;;;;4952190;23;20462;-96
2021/04/07 18:07:58;;;;;;;16.50;9.75;;;-2.70;99.90;;;;;;5427544;23;20449;-96
2021/04/07 18:17:53;;;;;;;218.77;17.20;;;-2.70;99.90;;;;;;5834208;23;20435;-94
2021/04/07 18:21:07;;;;;;;22.75;8.45;;;-2.60;99.90;;;;;;4919019;29;20421;-95
2021/04/07 18:24:50;;;;;;;39.53;11.38;;;-2.60;99.90;;;;;;4886309;29;20413;-94
2021/04/07 18:28:33;;;;;;;18.50;9.15;;;-2.60;99.90;;;;;;4885553;29;20420;-95
2021/04/07 18:52:08;;;;;;;477.10;25.52;;;-2.60;99.90;;;;;;4937836;29;20506;-94
2021/04/07 18:55:13;;;;;;;533.87;25.47;;;-2.60;99.90;;;;;;4907459;29;20487;-96
2021/04/07 18:58:16;;;;;;;216.68;14.30;;;-2.60;99.90;;;;;;4901274;29;20426;-93
2021/04/07 19:04:50;;;;;;;33.38;10.90;;;-2.50;99.90;;;;;;4926918;23;20531;-94
2021/04/07 19:07:41;;;;;;;801.70;43.43;;;-2.60;99.90;;;;;;4919167;29;20441;-94
2021/04/07 19:10:15;;;;;;;24.80;11.25;;;-2.50;99.90;;;;;;4897935;29;20436;-93
2021/04/07 19:12:59;;;;;;;44.38;13.90;;;-2.60;99.90;;;;;;4913425;29;20422;-93
2021/04/07 19:15:44;;;;;;;22.23;10.27;;;-2.50;99.90;;;;;;4906842;29;20418;-93
2021/04/07 19:18:36;;;;;;;80.18;11.23;;;-2.50;99.90;;;;;;4929400;29;20452;-95
2021/04/07 19:21:28;;;;;;;27.43;13.57;;;-2.60;99.90;;;;;;4933744;29;20421;-94
2021/04/07 19:24:18;;;;;;;21.77;11.98;;;-2.50;99.90;;;;;;4922555;29;20424;-93
2021/04/07 19:27:06;;;;;;;17.55;9.98;;;-2.50;99.90;;;;;;4936346;29;20413;-93
2021/04/07 19:29:56;;;;;;;22.23;11.60;;;-2.50;99.90;;;;;;4936522;29;20436;-92
2021/04/07 19:32:50;;;;;;;21.27;12.07;;;-2.50;99.90;;;;;;4922289;29;20429;-93
2021/04/07 19:39:16;;;;;;;24.60;13.05;;;-2.50;99.90;;;;;;4933327;29;20408;-93
2021/04/07 19:46:27;;;;;;;14.05;7.40;;;-2.60;99.90;;;;;;4861288;29;20453;-94
2021/04/07 19:48:58;;;;;;;17.20;8.93;;;-2.50;99.90;;;;;;5528374;23;20419;-94
2021/04/07 19:52:18;;;;;;;16.25;7.95;;;-2.60;99.90;;;;;;4899595;29;20442;-94
2021/04/07 19:58:03;;;;;;;17.27;11.00;;;-2.60;99.90;;;;;;5528264;23;20461;-94
2021/04/07 20:04:05;;;;;;;21.27;12.05;;;-2.60;99.90;;;;;;3203845;23;20619;-94
2021/04/07 20:12:19;;;;;;;13.75;8.20;;;-2.60;99.90;;;;;;5609095;23;20454;-95
